createdAt,value
2022-08-31T00:00:38.975Z,23.87
2022-08-31T00:03:26.103Z,23.96
2022-08-31T00:06:04.642Z,23.87
2022-08-31T00:08:33.063Z,24.08
2022-08-31T00:11:03.899Z,24.06
2022-08-31T00:13:30.967Z,23.90
2022-08-31T00:15:57.878Z,24.08
2022-08-31T00:18:24.575Z,24.18
2022-08-31T00:20:54.750Z,24.17
2022-08-31T00:23:24.857Z,24.11
2022-08-31T00:25:51.900Z,24.07
2022-08-31T00:28:19.858Z,24.16
2022-08-31T00:30:47.062Z,24.08
2022-08-31T00:33:15.217Z,23.86
2022-08-31T00:35:45.238Z,24.02
2022-08-31T00:38:14.484Z,24.11
2022-08-31T00:40:47.235Z,23.98
2022-08-31T00:43:39.471Z,23.85
2022-08-31T00:46:29.904Z,23.83
2022-08-31T00:49:02.885Z,23.79
2022-08-31T00:51:36.437Z,23.51
2022-08-31T00:54:18.881Z,23.56
2022-08-31T00:56:47.347Z,23.51
2022-08-31T00:59:16.513Z,23.54
2022-08-31T01:01:44.844Z,23.41
2022-08-31T01:04:11.821Z,23.25
2022-08-31T01:06:40.027Z,23.37
2022-08-31T01:09:08.457Z,23.28
2022-08-31T01:11:37.298Z,23.01
2022-08-31T01:14:04.240Z,23.11
2022-08-31T01:16:55.893Z,23.18
2022-08-31T01:19:39.716Z,23.10
2022-08-31T01:22:13.192Z,23.11
2022-08-31T01:24:44.512Z,23.09
2022-08-31T01:27:12.600Z,23.28
2022-08-31T01:29:39.312Z,23.08
2022-08-31T01:32:06.572Z,23.18
2022-08-31T01:34:34.313Z,23.26
2022-08-31T01:37:01.597Z,23.15
2022-08-31T01:39:28.619Z,22.93
2022-08-31T01:41:55.393Z,23.04
2022-08-31T01:44:24.683Z,23.21
2022-08-31T01:46:52.249Z,23.14
2022-08-31T01:49:22.502Z,23.20
2022-08-31T01:51:51.167Z,23.23
2022-08-31T01:54:20.450Z,23.23
2022-08-31T01:56:48.747Z,23.09
2022-08-31T01:59:17.991Z,23.17
2022-08-31T02:01:48.840Z,23.19
2022-08-31T02:04:18.068Z,23.13
2022-08-31T02:06:55.758Z,23.04
2022-08-31T02:09:22.946Z,22.94
2022-08-31T02:11:50.115Z,23.03
2022-08-31T02:14:25.512Z,22.80
2022-08-31T02:16:52.350Z,22.83
2022-08-31T02:19:19.041Z,22.88
2022-08-31T02:21:45.719Z,22.71
2022-08-31T02:24:12.709Z,22.62
2022-08-31T02:26:40.388Z,22.58
2022-08-31T02:29:08.746Z,22.43
2022-08-31T02:31:36.553Z,22.67
2022-08-31T02:34:06.606Z,22.63
2022-08-31T02:36:35.833Z,22.61
2022-08-31T02:39:03.943Z,22.66
2022-08-31T02:41:32.703Z,22.74
2022-08-31T02:43:59.400Z,22.76
2022-08-31T02:46:26.138Z,22.72
2022-08-31T02:48:53.207Z,22.44
2022-08-31T02:51:19.954Z,22.55
2022-08-31T02:53:46.781Z,22.62
2022-08-31T02:56:22.717Z,22.43
2022-08-31T02:58:55.474Z,22.35
2022-08-31T03:01:26.733Z,22.50
2022-08-31T03:03:53.621Z,22.62
2022-08-31T03:06:20.471Z,22.70
2022-08-31T03:08:49.014Z,22.54
2022-08-31T03:11:17.682Z,22.63
2022-08-31T03:13:58.618Z,22.52
2022-08-31T03:16:26.100Z,22.60
2022-08-31T03:18:52.902Z,22.33
2022-08-31T03:21:19.564Z,22.55
2022-08-31T03:23:46.284Z,22.51
2022-08-31T03:26:13.146Z,22.50
2022-08-31T03:28:40.320Z,22.65
2022-08-31T03:31:10.970Z,22.92
2022-08-31T03:33:38.170Z,22.83
2022-08-31T03:36:05.746Z,22.93
2022-08-31T03:38:32.973Z,22.78
2022-08-31T03:41:01.310Z,22.87
2022-08-31T03:43:28.056Z,22.79
2022-08-31T03:45:55.019Z,22.73
2022-08-31T03:48:21.843Z,22.67
2022-08-31T03:50:48.726Z,22.84
2022-08-31T03:53:20.399Z,22.74
2022-08-31T03:55:54.216Z,22.71
2022-08-31T03:58:21.510Z,22.69
2022-08-31T04:00:51.273Z,22.78
2022-08-31T04:03:18.082Z,22.70
2022-08-31T04:05:50.226Z,22.83
2022-08-31T04:08:18.936Z,22.90
2022-08-31T04:10:49.160Z,22.90
2022-08-31T04:13:18.066Z,22.71
2022-08-31T04:15:48.044Z,22.82
2022-08-31T04:18:16.112Z,22.74
2022-08-31T04:20:45.862Z,22.64
2022-08-31T04:23:15.714Z,22.62
2022-08-31T04:25:43.213Z,22.96
2022-08-31T04:28:13.038Z,22.83
2022-08-31T04:30:41.947Z,23.01
2022-08-31T04:33:09.127Z,22.95
2022-08-31T04:35:35.951Z,23.11
2022-08-31T04:38:02.923Z,23.10
2022-08-31T04:40:29.689Z,22.92
2022-08-31T04:42:56.444Z,23.06
2022-08-31T04:45:27.898Z,23.20
2022-08-31T04:47:54.628Z,23.50
2022-08-31T04:50:22.655Z,23.57
2022-08-31T04:53:03.462Z,23.75
2022-08-31T04:55:30.911Z,23.90
2022-08-31T04:57:57.544Z,24.00
2022-08-31T05:00:25.076Z,24.21
2022-08-31T05:02:54.549Z,24.29
2022-08-31T05:05:24.797Z,24.11
2022-08-31T05:07:51.530Z,24.35
2022-08-31T05:10:18.683Z,24.37
2022-08-31T05:12:47.946Z,24.31
2022-08-31T05:15:15.947Z,24.57
2022-08-31T05:17:44.069Z,24.89
2022-08-31T05:20:19.957Z,25.16
2022-08-31T05:22:47.839Z,25.17
2022-08-31T05:25:14.636Z,25.31
2022-08-31T05:27:42.983Z,25.57
2022-08-31T05:30:16.437Z,25.78
2022-08-31T05:32:44.643Z,25.94
2022-08-31T05:35:13.038Z,26.13
2022-08-31T05:37:40.096Z,26.61
2022-08-31T05:40:07.960Z,26.49
2022-08-31T05:42:35.753Z,26.70
2022-08-31T05:45:07.236Z,26.93
2022-08-31T05:47:34.011Z,26.93
2022-08-31T05:50:00.800Z,27.34
2022-08-31T05:52:29.757Z,27.41
2022-08-31T05:54:56.506Z,27.60
2022-08-31T05:57:26.473Z,27.57
2022-08-31T05:59:53.671Z,26.90
2022-08-31T06:02:20.362Z,26.48
2022-08-31T06:04:47.168Z,26.29
2022-08-31T06:07:17.693Z,26.28
2022-08-31T06:09:44.474Z,26.52
2022-08-31T06:12:11.482Z,26.58
2022-08-31T06:14:38.866Z,26.47
2022-08-31T06:17:07.240Z,26.61
2022-08-31T06:19:33.943Z,26.98
2022-08-31T06:22:00.681Z,27.32
2022-08-31T06:24:28.963Z,27.69
2022-08-31T06:27:14.375Z,27.84
2022-08-31T06:29:42.097Z,27.74
2022-08-31T06:32:11.115Z,27.98
2022-08-31T06:34:40.383Z,27.45
2022-08-31T06:37:18.313Z,27.55
2022-08-31T06:39:48.226Z,27.62
2022-08-31T06:42:15.376Z,27.21
2022-08-31T06:44:42.059Z,27.19
2022-08-31T06:47:08.732Z,27.36
2022-08-31T06:49:35.420Z,27.63
2022-08-31T06:52:06.168Z,27.99
2022-08-31T06:54:32.850Z,28.11
2022-08-31T06:56:59.928Z,28.30
2022-08-31T06:59:29.482Z,28.34
2022-08-31T07:02:01.731Z,28.71
2022-08-31T07:04:33.775Z,28.91
2022-08-31T07:07:03.356Z,28.76
2022-08-31T07:09:30.076Z,29.15
2022-08-31T07:11:56.789Z,29.10
2022-08-31T07:14:26.973Z,28.71
2022-08-31T07:16:59.618Z,29.06
2022-08-31T07:19:28.054Z,29.33
2022-08-31T07:21:59.013Z,29.47
2022-08-31T07:24:45.636Z,29.46
2022-08-31T07:27:16.366Z,29.43
2022-08-31T07:29:43.729Z,29.63
2022-08-31T07:32:12.765Z,29.65
2022-08-31T07:34:40.330Z,29.72
2022-08-31T07:37:26.290Z,29.98
2022-08-31T07:40:14.021Z,29.26
2022-08-31T07:42:45.010Z,29.72
2022-08-31T07:45:25.848Z,29.99
2022-08-31T07:48:01.263Z,29.67
2022-08-31T07:50:30.730Z,30.09
2022-08-31T07:52:58.759Z,29.97
2022-08-31T07:55:29.225Z,29.92
2022-08-31T07:57:56.763Z,29.79
2022-08-31T08:00:43.227Z,30.09
2022-08-31T08:03:13.178Z,30.31
2022-08-31T08:05:43.288Z,30.43
2022-08-31T08:08:13.789Z,30.51
2022-08-31T08:10:46.724Z,30.36
2022-08-31T08:13:20.901Z,30.25
2022-08-31T08:15:51.983Z,30.26
2022-08-31T08:18:22.110Z,30.14
2022-08-31T08:20:51.974Z,30.33
2022-08-31T08:23:27.993Z,30.64
2022-08-31T08:25:57.753Z,30.89
2022-08-31T08:28:42.880Z,30.84
2022-08-31T08:31:25.032Z,30.77
2022-08-31T08:33:52.443Z,30.89
2022-08-31T08:36:19.711Z,31.03
2022-08-31T08:38:54.158Z,31.25
2022-08-31T08:41:23.432Z,31.30
2022-08-31T08:44:01.004Z,31.24
2022-08-31T08:46:49.203Z,31.33
2022-08-31T08:49:20.825Z,31.42
2022-08-31T08:51:53.597Z,31.55
2022-08-31T08:54:38.898Z,31.69
2022-08-31T08:57:14.340Z,31.37
2022-08-31T08:59:47.106Z,31.18
2022-08-31T09:02:43.404Z,31.60
2022-08-31T09:05:25.385Z,31.90
2022-08-31T09:08:23.774Z,31.34
2022-08-31T09:11:18.109Z,31.77
2022-08-31T09:13:53.671Z,31.95
2022-08-31T09:16:36.778Z,32.01
2022-08-31T09:19:08.998Z,32.01
2022-08-31T09:21:49.727Z,31.88
2022-08-31T09:24:20.909Z,31.41
2022-08-31T09:27:18.622Z,31.50
2022-08-31T09:30:06.533Z,31.38
2022-08-31T09:32:36.258Z,31.44
2022-08-31T09:35:24.459Z,31.66
2022-08-31T09:38:10.070Z,31.33
2022-08-31T09:40:41.516Z,31.47
2022-08-31T09:43:22.853Z,31.38
2022-08-31T09:46:30.544Z,31.86
2022-08-31T09:49:03.443Z,31.81
2022-08-31T09:51:38.570Z,32.04
2022-08-31T09:54:47.273Z,32.02
2022-08-31T09:57:15.126Z,32.36
2022-08-31T09:59:52.161Z,32.71
2022-08-31T10:02:38.161Z,32.34
2022-08-31T10:05:24.275Z,32.66
2022-08-31T10:08:08.311Z,33.06
2022-08-31T10:10:41.570Z,33.35
2022-08-31T10:13:18.194Z,33.55
2022-08-31T10:16:12.067Z,33.38
2022-08-31T10:19:13.974Z,33.23
2022-08-31T10:22:03.618Z,33.40
2022-08-31T10:24:48.743Z,33.40
2022-08-31T10:27:20.561Z,33.62
2022-08-31T10:29:59.996Z,33.63
2022-08-31T10:32:40.745Z,33.49
2022-08-31T10:35:19.521Z,34.07
2022-08-31T10:38:27.022Z,34.16
2022-08-31T10:41:06.691Z,34.16
2022-08-31T10:43:44.982Z,34.30
2022-08-31T10:46:17.612Z,33.99
2022-08-31T10:48:52.349Z,33.80
2022-08-31T10:51:46.394Z,33.45
2022-08-31T10:54:27.358Z,33.40
2022-08-31T10:57:06.221Z,33.90
2022-08-31T11:00:10.214Z,34.12
2022-08-31T11:02:46.182Z,34.19
2022-08-31T11:05:38.361Z,33.72
2022-08-31T11:08:38.864Z,33.77
2022-08-31T11:11:13.147Z,33.23
2022-08-31T11:14:17.893Z,32.47
2022-08-31T11:17:19.079Z,31.70
2022-08-31T11:20:06.883Z,30.79
2022-08-31T11:22:56.709Z,29.05
2022-08-31T11:25:38.585Z,27.55
2022-08-31T11:28:23.653Z,26.85
2022-08-31T11:30:52.315Z,25.90
2022-08-31T11:33:28.230Z,25.57
2022-08-31T11:36:14.949Z,25.11
2022-08-31T11:39:01.843Z,24.70
2022-08-31T11:41:31.272Z,24.32
2022-08-31T11:44:00.498Z,24.22
2022-08-31T11:46:31.232Z,23.82
2022-08-31T11:49:01.044Z,23.46
2022-08-31T11:51:51.424Z,23.27
2022-08-31T11:54:41.114Z,23.18
2022-08-31T11:57:16.039Z,23.13
2022-08-31T11:59:54.716Z,23.01
2022-08-31T12:02:21.713Z,23.03
2022-08-31T12:05:13.168Z,23.05
2022-08-31T12:08:04.288Z,23.04
2022-08-31T12:10:57.316Z,23.19
2022-08-31T12:13:31.272Z,23.42
2022-08-31T12:16:30.209Z,23.55
2022-08-31T12:19:02.230Z,23.19
2022-08-31T12:22:07.137Z,23.18
2022-08-31T12:24:33.761Z,23.21
2022-08-31T12:27:27.683Z,22.57
2022-08-31T12:30:12.443Z,22.81
2022-08-31T12:32:43.274Z,22.63
2022-08-31T12:35:18.142Z,22.61
2022-08-31T12:37:45.015Z,22.49
2022-08-31T12:40:16.962Z,22.52
2022-08-31T12:42:55.669Z,22.48
2022-08-31T12:46:04.400Z,22.42
2022-08-31T12:49:12.279Z,22.40
2022-08-31T12:51:50.923Z,22.34
2022-08-31T12:54:35.568Z,22.44
2022-08-31T12:57:25.761Z,22.54
2022-08-31T13:00:11.776Z,22.50
2022-08-31T13:02:45.622Z,22.76
2022-08-31T13:05:35.205Z,22.70
2022-08-31T13:08:19.658Z,22.55
2022-08-31T13:10:47.799Z,22.55
2022-08-31T13:13:28.676Z,22.80
2022-08-31T13:16:10.093Z,22.62
2022-08-31T13:18:40.045Z,22.66
2022-08-31T13:21:07.193Z,22.48
2022-08-31T13:23:41.054Z,22.52
2022-08-31T13:26:23.889Z,22.33
2022-08-31T13:29:01.275Z,22.73
2022-08-31T13:31:31.551Z,22.77
2022-08-31T13:34:08.234Z,22.56
2022-08-31T13:37:11.729Z,22.78
2022-08-31T13:39:44.955Z,22.92
2022-08-31T13:42:33.867Z,23.07
2022-08-31T13:45:08.254Z,23.09
2022-08-31T13:47:45.171Z,23.12
2022-08-31T13:50:26.212Z,23.37
2022-08-31T13:53:25.506Z,23.74
2022-08-31T13:55:51.132Z,23.68
2022-08-31T13:58:29.602Z,24.04
2022-08-31T14:01:23.871Z,24.40
2022-08-31T14:03:59.064Z,24.58
2022-08-31T14:06:50.468Z,24.79
2022-08-31T14:09:19.311Z,24.85
2022-08-31T14:12:09.424Z,25.02
2022-08-31T14:14:43.351Z,24.98
2022-08-31T14:17:17.496Z,25.10
2022-08-31T14:19:45.261Z,25.21
2022-08-31T14:22:36.488Z,25.23
2022-08-31T14:25:06.715Z,25.17
2022-08-31T14:27:39.278Z,25.26
2022-08-31T14:30:09.449Z,25.23
2022-08-31T14:32:39.725Z,25.24
2022-08-31T14:35:12.062Z,25.23
2022-08-31T14:37:44.300Z,25.24
2022-08-31T14:40:14.115Z,25.15
2022-08-31T14:42:43.641Z,25.36
2022-08-31T14:45:20.739Z,25.34
2022-08-31T14:47:55.545Z,25.36
2022-08-31T14:50:27.434Z,25.30
2022-08-31T14:52:55.438Z,25.33
2022-08-31T14:55:24.887Z,25.45
2022-08-31T14:58:02.055Z,25.32
2022-08-31T15:00:31.854Z,25.41
2022-08-31T15:03:02.573Z,25.56
2022-08-31T15:05:32.882Z,25.39
2022-08-31T15:07:59.671Z,25.56
2022-08-31T15:10:26.771Z,25.47
2022-08-31T15:12:53.828Z,25.63
2022-08-31T15:15:23.895Z,25.43
2022-08-31T15:17:51.868Z,25.37
2022-08-31T15:20:22.841Z,25.31
2022-08-31T15:22:50.616Z,25.26
2022-08-31T15:25:20.030Z,25.54
2022-08-31T15:27:46.901Z,25.38
2022-08-31T15:30:16.133Z,25.66
2022-08-31T15:32:45.365Z,25.72
2022-08-31T15:35:20.055Z,25.73
2022-08-31T15:37:56.569Z,25.67
2022-08-31T15:40:23.795Z,25.72
2022-08-31T15:42:51.153Z,25.70
2022-08-31T15:45:18.010Z,25.73
2022-08-31T15:48:03.824Z,25.64
2022-08-31T15:50:32.455Z,25.61
2022-08-31T15:53:09.002Z,25.40
2022-08-31T15:55:41.320Z,25.32
2022-08-31T15:58:09.524Z,25.37
2022-08-31T16:00:37.444Z,25.19
2022-08-31T16:03:05.228Z,25.23
2022-08-31T16:05:36.034Z,25.27
2022-08-31T16:08:02.979Z,25.25
2022-08-31T16:10:30.863Z,25.10
2022-08-31T16:12:57.767Z,25.07
2022-08-31T16:15:25.069Z,24.87
2022-08-31T16:17:57.269Z,25.10
2022-08-31T16:20:24.024Z,24.91
2022-08-31T16:22:58.893Z,24.69
2022-08-31T16:25:29.004Z,25.10
2022-08-31T16:27:57.758Z,25.06
2022-08-31T16:30:24.517Z,25.05
2022-08-31T16:32:54.282Z,24.94
2022-08-31T16:35:21.082Z,25.09
2022-08-31T16:37:47.851Z,24.82
2022-08-31T16:40:14.736Z,24.88
2022-08-31T16:42:43.622Z,24.85
2022-08-31T16:45:15.659Z,24.59
2022-08-31T16:47:42.310Z,24.53
2022-08-31T16:50:09.517Z,24.58
2022-08-31T16:52:36.789Z,24.70
2022-08-31T16:55:08.093Z,24.56
2022-08-31T16:57:34.813Z,24.44
2022-08-31T17:00:06.031Z,24.60
2022-08-31T17:02:36.427Z,24.63
2022-08-31T17:05:04.767Z,24.65
2022-08-31T17:07:32.760Z,24.54
2022-08-31T17:10:07.621Z,24.68
2022-08-31T17:12:37.041Z,24.51
2022-08-31T17:15:04.289Z,24.33
2022-08-31T17:17:33.352Z,24.25
2022-08-31T17:20:04.146Z,24.44
2022-08-31T17:22:33.644Z,24.29
2022-08-31T17:25:05.025Z,24.26
2022-08-31T17:27:34.309Z,24.20
2022-08-31T17:30:07.278Z,24.28
2022-08-31T17:32:44.995Z,24.28
2022-08-31T17:35:18.644Z,24.19
2022-08-31T17:37:45.846Z,24.11
2022-08-31T17:40:32.378Z,24.27
2022-08-31T17:43:00.139Z,24.21
2022-08-31T17:45:27.270Z,24.00
2022-08-31T17:47:57.578Z,24.12
2022-08-31T17:50:25.253Z,24.11
2022-08-31T17:52:52.220Z,24.29
2022-08-31T17:55:18.944Z,24.15
2022-08-31T17:57:47.628Z,24.16
2022-08-31T18:00:15.973Z,24.27
2022-08-31T18:02:43.560Z,24.18
2022-08-31T18:05:16.125Z,24.39
2022-08-31T18:07:49.930Z,24.45
2022-08-31T18:10:19.252Z,24.37
2022-08-31T18:12:47.653Z,24.48
2022-08-31T18:15:19.407Z,24.47
2022-08-31T18:17:48.773Z,24.27
2022-08-31T18:20:15.778Z,24.28
2022-08-31T18:22:43.067Z,24.45
2022-08-31T18:25:11.077Z,24.37
2022-08-31T18:27:37.970Z,24.36
2022-08-31T18:30:07.605Z,24.31
2022-08-31T18:32:36.730Z,24.45
2022-08-31T18:35:11.282Z,24.51
2022-08-31T18:37:40.159Z,24.31
2022-08-31T18:40:31.912Z,24.40
2022-08-31T18:43:16.977Z,24.23
2022-08-31T18:45:49.570Z,24.32
2022-08-31T18:48:25.481Z,24.28
2022-08-31T18:50:52.755Z,24.15
2022-08-31T18:53:29.232Z,24.20
2022-08-31T18:56:04.666Z,24.33
2022-08-31T18:58:32.063Z,24.35
2022-08-31T19:00:59.433Z,24.36
2022-08-31T19:03:31.582Z,24.45
2022-08-31T19:05:58.408Z,24.45
2022-08-31T19:08:29.222Z,24.45
2022-08-31T19:11:01.102Z,24.58
2022-08-31T19:13:32.114Z,24.55
2022-08-31T19:16:07.927Z,24.65
2022-08-31T19:18:42.255Z,24.84
2022-08-31T19:21:22.135Z,24.80
2022-08-31T19:23:49.624Z,24.80
2022-08-31T19:26:27.717Z,24.86
2022-08-31T19:28:56.359Z,24.82
2022-08-31T19:31:25.138Z,24.84
2022-08-31T19:33:57.071Z,24.79
2022-08-31T19:36:29.698Z,24.71
2022-08-31T19:38:56.480Z,24.78
2022-08-31T19:41:25.407Z,24.73
2022-08-31T19:44:04.300Z,24.51
2022-08-31T19:46:35.285Z,24.48
2022-08-31T19:49:02.563Z,24.55
2022-08-31T19:51:31.377Z,24.69
2022-08-31T19:53:59.829Z,24.68
2022-08-31T19:56:31.126Z,24.63
2022-08-31T19:58:59.422Z,24.61
2022-08-31T20:01:33.665Z,24.55
2022-08-31T20:04:27.111Z,24.55
2022-08-31T20:06:54.825Z,24.49
2022-08-31T20:09:22.955Z,24.39
2022-08-31T20:11:52.404Z,24.48
2022-08-31T20:14:19.966Z,24.36
2022-08-31T20:16:52.917Z,24.43
2022-08-31T20:19:25.346Z,24.32
2022-08-31T20:22:03.572Z,24.34
2022-08-31T20:24:30.938Z,24.26
2022-08-31T20:27:09.348Z,24.16
2022-08-31T20:29:38.807Z,24.32
2022-08-31T20:32:08.472Z,24.29
2022-08-31T20:34:38.081Z,24.09
2022-08-31T20:37:04.920Z,24.20
2022-08-31T20:39:35.408Z,24.13
2022-08-31T20:42:04.036Z,24.00
2022-08-31T20:44:35.546Z,24.10
2022-08-31T20:47:31.202Z,24.04
2022-08-31T20:50:01.041Z,24.02
2022-08-31T20:52:35.427Z,23.79
2022-08-31T20:55:04.354Z,23.78
2022-08-31T20:57:48.411Z,23.68
2022-08-31T21:00:15.921Z,23.65
2022-08-31T21:02:44.361Z,23.65
2022-08-31T21:05:37.116Z,23.49
2022-08-31T21:08:03.730Z,23.48
2022-08-31T21:10:37.620Z,23.58
2022-08-31T21:13:10.251Z,23.52
2022-08-31T21:15:57.367Z,23.57
2022-08-31T21:18:24.027Z,23.41
2022-08-31T21:20:52.589Z,23.46
2022-08-31T21:23:19.418Z,23.45
2022-08-31T21:25:46.586Z,23.48
2022-08-31T21:28:17.405Z,23.35
2022-08-31T21:30:49.122Z,23.49
2022-08-31T21:33:41.826Z,23.44
2022-08-31T21:36:11.619Z,23.33
2022-08-31T21:38:39.132Z,23.19
2022-08-31T21:41:13.007Z,23.20
2022-08-31T21:43:40.097Z,23.03
2022-08-31T21:46:10.772Z,22.88
2022-08-31T21:48:40.543Z,22.97
2022-08-31T21:51:12.355Z,22.90
2022-08-31T21:53:42.424Z,22.58
2022-08-31T21:56:10.462Z,22.80
2022-08-31T21:58:37.220Z,22.71
2022-08-31T22:01:10.582Z,22.76
2022-08-31T22:03:39.329Z,22.60
2022-08-31T22:06:09.276Z,22.61
2022-08-31T22:08:38.280Z,22.56
2022-08-31T22:11:13.327Z,22.61
2022-08-31T22:13:43.965Z,22.48
2022-08-31T22:16:18.970Z,-143.50
2022-08-31T22:19:06.410Z,22.37
2022-08-31T22:21:47.286Z,-143.50
2022-08-31T22:24:27.844Z,22.62
2022-08-31T22:26:57.125Z,187.77
2022-08-31T22:29:27.111Z,22.45
2022-08-31T22:31:57.863Z,22.50
2022-08-31T22:34:25.283Z,22.59
2022-08-31T22:36:53.164Z,22.66
2022-08-31T22:39:25.235Z,22.54
2022-08-31T22:41:53.187Z,22.55
2022-08-31T22:44:23.257Z,22.39
2022-08-31T22:46:50.174Z,22.39
2022-08-31T22:49:17.518Z,22.12
2022-08-31T22:51:48.671Z,22.19
2022-08-31T22:54:18.000Z,22.36
2022-08-31T22:56:45.745Z,22.37
2022-08-31T22:59:15.753Z,22.28
2022-08-31T23:01:52.557Z,22.23
2022-08-31T23:04:23.831Z,22.17
2022-08-31T23:06:51.952Z,22.06
2022-08-31T23:09:21.617Z,22.03
2022-08-31T23:11:51.755Z,-143.50
2022-08-31T23:14:21.147Z,-143.50
2022-08-31T23:16:57.237Z,-143.50
2022-08-31T23:19:31.007Z,-143.50
2022-08-31T23:21:58.935Z,-143.50
2022-08-31T23:24:37.617Z,-143.50
2022-08-31T23:27:07.942Z,-143.50
2022-08-31T23:29:45.733Z,-143.50
2022-08-31T23:32:17.505Z,-143.50
2022-08-31T23:34:46.713Z,-143.50
2022-08-31T23:37:14.259Z,-143.50
2022-08-31T23:39:46.590Z,-143.50
2022-08-31T23:42:18.092Z,-143.50
2022-08-31T23:44:46.711Z,-143.50
2022-08-31T23:47:23.538Z,-143.50
2022-08-31T23:49:51.395Z,-143.50
2022-08-31T23:52:21.601Z,-143.50
2022-08-31T23:54:52.253Z,-143.50
2022-08-31T23:57:31.411Z,-143.50
